createdAt,value
2019-01-10T00:01:46.557Z,11.40
2019-01-10T00:04:35.810Z,10.90
2019-01-10T00:07:16.240Z,10.43
2019-01-10T00:10:06.581Z,8.63
2019-01-10T00:12:48.319Z,8.93
2019-01-10T00:15:31.723Z,7.53
2019-01-10T00:18:13.306Z,8.70
2019-01-10T00:20:55.268Z,10.37
2019-01-10T00:23:37.078Z,10.87
2019-01-10T00:26:19.385Z,9.53
2019-01-10T00:29:00.809Z,9.23
2019-01-10T00:31:42.412Z,14.50
2019-01-10T00:34:22.599Z,9.03
2019-01-10T00:37:12.037Z,8.03
2019-01-10T00:39:53.432Z,11.17
2019-01-10T00:42:35.840Z,11.47
2019-01-10T00:45:17.209Z,11.07
2019-01-10T00:48:06.610Z,10.63
2019-01-10T00:50:48.571Z,11.07
2019-01-10T00:53:30.125Z,10.27
2019-01-10T00:56:11.728Z,13.40
2019-01-10T00:58:53.801Z,13.87
2019-01-10T01:01:35.169Z,10.57
2019-01-10T01:04:16.973Z,8.37
2019-01-10T01:06:58.581Z,11.93
2019-01-10T01:09:40.659Z,13.73
2019-01-10T01:12:22.155Z,8.43
2019-01-10T01:15:03.838Z,7.73
2019-01-10T01:17:45.624Z,9.93
2019-01-10T01:20:25.837Z,11.40
2019-01-10T01:23:07.291Z,10.47
2019-01-10T01:25:48.984Z,12.37
2019-01-10T01:28:29.326Z,9.10
2019-01-10T01:31:10.944Z,8.67
2019-01-10T01:33:52.289Z,11.17
2019-01-10T01:36:34.618Z,11.30
2019-01-10T01:39:16.256Z,9.57
2019-01-10T01:41:58.804Z,9.57
2019-01-10T01:44:40.592Z,10.50
2019-01-10T01:47:21.938Z,8.23
2019-01-10T01:50:04.096Z,11.13
2019-01-10T01:52:45.790Z,8.33
2019-01-10T01:55:27.195Z,8.93
2019-01-10T01:58:09.179Z,8.13
2019-01-10T02:00:50.787Z,9.70
2019-01-10T02:03:32.110Z,8.33
2019-01-10T02:06:13.853Z,8.43
2019-01-10T02:08:57.787Z,9.50
2019-01-10T02:11:38.726Z,8.03
2019-01-10T02:14:20.741Z,8.70
2019-01-10T02:17:03.371Z,10.80
2019-01-10T02:19:49.939Z,13.67
2019-01-10T02:22:32.043Z,8.30
2019-01-10T02:25:02.586Z,8.70
2019-01-10T02:27:52.070Z,9.50
2019-01-10T02:30:42.440Z,12.17
2019-01-10T02:36:05.553Z,8.37
2019-01-10T02:38:37.007Z,6.83
2019-01-10T02:41:07.363Z,8.83
2019-01-10T02:43:37.859Z,8.57
2019-01-10T02:46:26.683Z,6.93
2019-01-10T02:49:19.270Z,9.10
2019-01-10T02:52:08.634Z,9.40
2019-01-10T02:57:22.159Z,10.90
2019-01-10T03:02:49.113Z,9.27
2019-01-10T03:05:19.654Z,10.87
2019-01-10T03:07:50.018Z,12.97
2019-01-10T03:10:39.286Z,13.77
2019-01-10T03:13:20.917Z,13.47
2019-01-10T03:16:02.093Z,12.07
2019-01-10T03:18:51.824Z,13.03
2019-01-10T03:21:35.613Z,11.53
2019-01-10T03:24:05.756Z,10.27
2019-01-10T03:26:55.255Z,13.73
2019-01-10T03:29:44.489Z,11.27
2019-01-10T03:32:33.815Z,10.10
2019-01-10T03:38:25.592Z,11.27
2019-01-10T03:41:07.173Z,10.03
2019-01-10T03:46:30.315Z,10.77
2019-01-10T03:49:19.768Z,10.67
2019-01-10T03:52:01.271Z,11.77
2019-01-10T03:54:42.879Z,12.83
2019-01-10T03:57:24.649Z,10.83
2019-01-10T04:00:05.998Z,11.50
2019-01-10T04:02:36.298Z,12.90
2019-01-10T04:05:25.533Z,13.33
2019-01-10T04:08:15.269Z,10.63
2019-01-10T04:10:58.449Z,12.30
2019-01-10T04:13:39.989Z,14.60
2019-01-10T04:16:21.929Z,16.47
2019-01-10T04:19:03.972Z,12.63
2019-01-10T04:21:45.779Z,11.23
2019-01-10T04:24:17.261Z,13.67
2019-01-10T04:26:48.440Z,13.43
2019-01-10T04:29:50.041Z,15.10
2019-01-10T04:32:19.688Z,15.87
2019-01-10T04:35:01.286Z,17.10
2019-01-10T04:37:43.252Z,11.37
2019-01-10T04:43:17.441Z,15.40
2019-01-10T04:45:59.142Z,13.60
2019-01-10T04:48:39.193Z,12.87
2019-01-10T04:51:28.571Z,15.40
2019-01-10T04:54:10.515Z,14.00
2019-01-10T04:56:51.692Z,16.47
2019-01-10T04:59:31.668Z,15.07
2019-01-10T05:02:21.214Z,17.33
2019-01-10T05:04:51.742Z,16.50
2019-01-10T05:07:23.789Z,15.13
2019-01-10T05:09:56.724Z,18.03
2019-01-10T05:12:46.324Z,13.77
2019-01-10T05:15:36.007Z,17.87
2019-01-10T05:18:08.195Z,18.10
2019-01-10T05:20:57.570Z,17.23
2019-01-10T05:23:46.821Z,16.60
2019-01-10T05:26:17.261Z,16.37
2019-01-10T05:28:47.481Z,17.13
2019-01-10T05:31:17.963Z,20.57
2019-01-10T05:33:48.508Z,17.83
2019-01-10T05:36:19.266Z,18.03
2019-01-10T05:38:49.513Z,13.97
2019-01-10T05:41:20.256Z,21.87
2019-01-10T05:43:50.394Z,16.47
2019-01-10T05:46:48.274Z,16.77
2019-01-10T05:49:31.047Z,19.30
2019-01-10T05:52:12.559Z,18.43
2019-01-10T05:54:54.860Z,13.63
2019-01-10T05:57:35.056Z,17.50
2019-01-10T06:00:06.685Z,17.40
2019-01-10T06:02:56.122Z,15.97
2019-01-10T06:05:26.741Z,16.87
2019-01-10T06:07:57.180Z,20.87
2019-01-10T06:10:28.929Z,17.87
2019-01-10T06:13:18.188Z,18.13
2019-01-10T06:18:48.980Z,16.47
2019-01-10T06:21:28.695Z,18.50
2019-01-10T06:24:00.243Z,19.17
2019-01-10T06:26:30.977Z,16.03
2019-01-10T06:29:01.560Z,19.80
2019-01-10T06:31:33.231Z,21.10
2019-01-10T06:34:03.928Z,16.90
2019-01-10T06:36:34.176Z,17.93
2019-01-10T06:39:06.874Z,19.40
2019-01-10T06:41:56.167Z,17.77
2019-01-10T06:44:26.985Z,17.50
2019-01-10T06:46:57.182Z,17.20
2019-01-10T06:49:46.460Z,18.07
2019-01-10T06:52:35.666Z,18.87
2019-01-10T06:55:16.955Z,19.00
2019-01-10T06:57:47.169Z,19.00
2019-01-10T07:00:37.758Z,16.33
2019-01-10T07:03:08.088Z,19.33
2019-01-10T07:05:38.616Z,21.73
2019-01-10T07:08:08.867Z,19.63
2019-01-10T07:10:58.162Z,17.23
2019-01-10T07:13:38.473Z,18.00
2019-01-10T07:16:27.845Z,19.13
2019-01-10T07:18:58.875Z,17.60
2019-01-10T07:21:30.994Z,22.47
2019-01-10T07:24:21.240Z,36.90
2019-01-10T07:27:10.482Z,20.30
2019-01-10T07:29:52.227Z,18.23
2019-01-10T07:32:32.252Z,19.53
2019-01-10T07:35:14.472Z,16.77
2019-01-10T07:37:50.612Z,21.37
2019-01-10T07:40:30.461Z,19.37
2019-01-10T07:43:12.208Z,21.77
2019-01-10T07:45:54.689Z,19.47
2019-01-10T07:48:25.268Z,24.37
2019-01-10T07:50:55.507Z,19.17
2019-01-10T07:53:44.783Z,20.10
2019-01-10T07:56:34.255Z,20.17
2019-01-10T07:59:05.497Z,29.00
2019-01-10T08:01:38.903Z,24.10
2019-01-10T08:04:09.431Z,19.10
2019-01-10T08:06:39.721Z,19.73
2019-01-10T08:09:10.359Z,20.73
2019-01-10T08:11:41.086Z,18.50
2019-01-10T08:14:11.286Z,21.13
2019-01-10T08:16:41.768Z,21.03
2019-01-10T08:19:12.817Z,23.70
2019-01-10T08:22:02.132Z,19.83
2019-01-10T08:24:51.502Z,21.07
2019-01-10T08:27:40.823Z,20.47
2019-01-10T08:30:22.485Z,19.00
2019-01-10T08:33:04.279Z,22.40
2019-01-10T08:35:46.609Z,23.57
2019-01-10T08:38:28.327Z,20.03
2019-01-10T08:41:09.982Z,19.70
2019-01-10T08:43:51.404Z,20.77
2019-01-10T08:46:32.991Z,21.77
2019-01-10T08:49:15.268Z,23.07
2019-01-10T08:51:45.636Z,21.87
2019-01-10T08:54:34.863Z,23.73
2019-01-10T08:57:16.559Z,20.47
2019-01-10T08:59:58.388Z,16.47
2019-01-10T09:02:39.879Z,20.40
2019-01-10T09:05:21.595Z,22.47
2019-01-10T09:08:01.880Z,22.20
2019-01-10T09:10:51.258Z,19.90
2019-01-10T09:13:33.835Z,24.53
2019-01-10T09:16:16.441Z,21.73
2019-01-10T09:18:46.682Z,22.23
2019-01-10T09:21:35.938Z,19.37
2019-01-10T09:24:17.913Z,20.37
2019-01-10T09:26:48.493Z,21.30
2019-01-10T09:29:37.862Z,22.67
2019-01-10T09:32:08.876Z,22.17
2019-01-10T09:34:41.458Z,24.60
2019-01-10T09:37:30.924Z,18.23
2019-01-10T09:40:01.580Z,17.80
2019-01-10T09:42:41.615Z,17.93
2019-01-10T09:45:31.193Z,18.80
2019-01-10T09:48:20.479Z,17.03
2019-01-10T09:50:50.854Z,17.10
2019-01-10T09:53:21.303Z,19.10
2019-01-10T09:55:51.542Z,19.00
2019-01-10T09:58:40.949Z,19.60
2019-01-10T10:01:11.916Z,20.60
2019-01-10T10:04:01.184Z,24.67
2019-01-10T10:06:31.972Z,23.00
2019-01-10T10:12:00.211Z,18.97
2019-01-10T10:14:30.738Z,20.20
2019-01-10T10:17:01.641Z,21.93
2019-01-10T10:19:50.859Z,21.83
2019-01-10T10:22:32.463Z,15.73
2019-01-10T10:25:03.078Z,19.57
2019-01-10T10:27:33.305Z,22.10
2019-01-10T10:30:23.244Z,20.37
2019-01-10T10:33:04.919Z,20.53
2019-01-10T10:35:46.596Z,20.70
2019-01-10T10:38:16.905Z,17.33
2019-01-10T10:40:47.100Z,17.97
2019-01-10T10:43:17.888Z,17.43
2019-01-10T10:46:07.250Z,24.53
2019-01-10T10:48:38.122Z,17.47
2019-01-10T10:51:27.411Z,23.50
2019-01-10T10:54:08.866Z,23.53
2019-01-10T10:56:50.933Z,23.33
2019-01-10T10:59:21.457Z,19.70
2019-01-10T11:04:57.872Z,19.30
2019-01-10T11:07:47.234Z,21.50
2019-01-10T11:13:21.124Z,18.00
2019-01-10T11:16:10.478Z,25.40
2019-01-10T11:18:37.500Z,21.97
2019-01-10T11:21:08.371Z,20.37
2019-01-10T11:23:57.880Z,17.93
2019-01-10T11:26:47.471Z,17.77
2019-01-10T11:29:29.155Z,17.90
2019-01-10T11:32:13.282Z,23.60
2019-01-10T11:34:52.714Z,19.97
2019-01-10T11:37:41.992Z,18.63
2019-01-10T11:40:23.975Z,22.90
2019-01-10T11:42:54.464Z,20.13
2019-01-10T11:45:46.449Z,23.97
2019-01-10T11:48:36.090Z,19.43
2019-01-10T11:51:17.544Z,25.77
2019-01-10T11:53:48.272Z,20.87
2019-01-10T11:56:37.742Z,22.20
2019-01-10T11:59:26.967Z,20.37
2019-01-10T12:01:57.684Z,22.07
2019-01-10T12:04:28.298Z,19.33
2019-01-10T12:06:58.646Z,22.97
2019-01-10T12:09:31.179Z,21.87
2019-01-10T12:12:20.851Z,19.80
2019-01-10T12:15:10.392Z,17.13
2019-01-10T12:17:52.189Z,16.13
2019-01-10T12:20:24.094Z,17.93
2019-01-10T12:22:54.608Z,23.97
2019-01-10T12:25:25.167Z,20.23
2019-01-10T12:28:17.826Z,19.60
2019-01-10T12:30:48.204Z,18.10
2019-01-10T12:33:37.784Z,21.97
2019-01-10T12:36:19.400Z,18.50
2019-01-10T12:39:00.916Z,21.40
2019-01-10T12:41:42.515Z,16.53
2019-01-10T12:44:13.166Z,17.07
2019-01-10T12:46:53.319Z,20.63
2019-01-10T12:49:24.059Z,16.47
2019-01-10T12:52:13.459Z,17.90
2019-01-10T12:55:03.450Z,14.30
2019-01-10T12:57:52.695Z,14.00
2019-01-10T13:00:42.300Z,15.53
2019-01-10T13:03:13.336Z,14.70
2019-01-10T13:05:43.828Z,21.70
2019-01-10T13:08:33.107Z,13.67
2019-01-10T13:11:04.509Z,23.27
2019-01-10T13:13:54.161Z,19.80
2019-01-10T13:16:46.642Z,17.93
2019-01-10T13:19:21.127Z,14.90
2019-01-10T13:22:02.680Z,13.43
2019-01-10T13:24:44.352Z,19.87
2019-01-10T13:27:14.873Z,13.50
2019-01-10T13:30:10.496Z,17.97
2019-01-10T13:32:52.410Z,16.40
2019-01-10T13:35:33.831Z,17.23
2019-01-10T13:38:04.989Z,14.40
2019-01-10T13:40:35.162Z,17.03
2019-01-10T13:43:24.440Z,17.70
2019-01-10T13:45:55.602Z,14.23
2019-01-10T13:48:51.506Z,14.97
2019-01-10T13:51:28.080Z,13.83
2019-01-10T13:54:10.084Z,14.57
2019-01-10T13:59:32.998Z,18.03
2019-01-10T14:02:03.193Z,16.17
2019-01-10T14:04:33.642Z,19.43
2019-01-10T14:07:05.629Z,16.57
2019-01-10T14:09:35.831Z,16.13
2019-01-10T14:12:06.187Z,18.87
2019-01-10T14:14:37.113Z,22.67
2019-01-10T14:17:07.540Z,15.47
2019-01-10T14:19:37.871Z,19.47
2019-01-10T14:22:27.143Z,16.00
2019-01-10T14:24:57.867Z,20.23
2019-01-10T14:27:30.815Z,17.00
2019-01-10T14:30:01.075Z,18.47
2019-01-10T14:32:50.520Z,18.00
2019-01-10T14:35:21.696Z,15.50
2019-01-10T14:37:52.104Z,18.90
2019-01-10T14:40:22.625Z,19.90
2019-01-10T14:48:39.872Z,17.20
2019-01-10T14:57:23.435Z,15.40
2019-01-10T15:03:00.006Z,16.17
2019-01-10T15:05:34.474Z,17.90
2019-01-10T15:08:28.217Z,15.70
2019-01-10T15:11:01.154Z,13.60
2019-01-10T15:22:08.405Z,16.73
2019-01-10T15:25:37.226Z,13.80
2019-01-10T15:28:21.442Z,14.00
2019-01-10T15:31:15.432Z,16.97
2019-01-10T15:37:10.992Z,13.67
2019-01-10T15:40:08.702Z,13.27
2019-01-10T15:43:21.232Z,11.57
2019-01-10T15:45:57.288Z,11.23
2019-01-10T15:48:48.810Z,11.17
2019-01-10T15:54:18.207Z,13.70
2019-01-10T15:57:00.517Z,11.60
2019-01-10T15:59:48.774Z,11.23
2019-01-10T16:05:24.025Z,10.37
2019-01-10T16:08:16.429Z,11.97
2019-01-10T16:11:18.651Z,12.23
2019-01-10T16:14:27.636Z,10.20
2019-01-10T16:16:59.322Z,10.83
2019-01-10T16:19:38.971Z,11.10
2019-01-10T16:22:49.380Z,8.77
2019-01-10T16:25:46.807Z,8.40
2019-01-10T16:29:08.143Z,8.40
2019-01-10T16:32:06.907Z,18.10
2019-01-10T16:34:54.162Z,18.80
2019-01-10T16:37:48.727Z,13.57
2019-01-10T16:50:34.534Z,14.20
2019-01-10T16:53:27.997Z,24.63
2019-01-10T16:59:27.304Z,15.70
2019-01-10T17:04:57.270Z,10.83
2019-01-10T17:08:11.588Z,9.33
2019-01-10T17:11:02.403Z,8.43
2019-01-10T17:17:07.340Z,8.53
2019-01-10T17:19:55.408Z,10.83
2019-01-10T17:23:14.334Z,8.10
2019-01-10T17:26:41.588Z,12.00
2019-01-10T17:29:22.339Z,12.60
2019-01-10T17:32:25.584Z,8.67
2019-01-10T17:35:19.410Z,9.03
2019-01-10T17:38:04.715Z,9.47
2019-01-10T17:49:46.357Z,6.10
2019-01-10T17:52:49.856Z,13.50
2019-01-10T17:56:11.959Z,8.23
2019-01-10T18:07:27.633Z,10.77
2019-01-10T18:19:14.205Z,13.03
2019-01-10T18:46:00.920Z,11.13
2019-01-10T18:48:54.466Z,9.37
2019-01-10T18:55:53.393Z,11.50
2019-01-10T19:11:59.350Z,8.47
2019-01-10T19:15:30.513Z,9.67
2019-01-10T19:33:36.910Z,10.30
2019-01-10T19:36:36.665Z,9.17
2019-01-10T19:42:55.756Z,16.03
2019-01-10T19:45:57.141Z,9.97
2019-01-10T19:48:47.509Z,8.43
2019-01-10T19:51:35.198Z,10.73
2019-01-10T19:54:29.197Z,9.57
2019-01-10T19:56:56.994Z,11.53
2019-01-10T19:59:32.697Z,11.93
2019-01-10T20:11:11.956Z,11.27
2019-01-10T20:13:49.024Z,13.10
2019-01-10T20:17:11.758Z,10.03
2019-01-10T20:29:19.346Z,13.20
2019-01-10T20:32:46.257Z,18.17
2019-01-10T20:41:46.384Z,11.50
2019-01-10T20:48:09.033Z,12.40
2019-01-10T20:51:12.886Z,11.47
2019-01-10T20:54:01.326Z,10.00
2019-01-10T20:59:34.880Z,14.27
2019-01-10T21:05:49.646Z,8.70
2019-01-10T21:12:07.085Z,8.80
2019-01-10T21:14:59.104Z,7.63
2019-01-10T21:17:52.551Z,10.03
2019-01-10T21:23:26.691Z,12.23
2019-01-10T21:26:08.544Z,10.00
2019-01-10T21:29:02.038Z,11.63
2019-01-10T21:32:15.298Z,10.13
2019-01-10T21:37:57.582Z,10.00
2019-01-10T21:50:19.028Z,11.77
2019-01-10T21:59:00.058Z,10.20
2019-01-10T22:01:53.734Z,11.83
2019-01-10T22:07:53.341Z,9.50
2019-01-10T22:20:12.637Z,10.43
2019-01-10T22:23:18.148Z,9.83
2019-01-10T22:26:04.257Z,11.93
2019-01-10T22:28:48.678Z,11.10
2019-01-10T22:31:36.021Z,9.23
2019-01-10T22:34:32.672Z,11.30
2019-01-10T22:37:16.358Z,11.60
2019-01-10T22:39:56.111Z,9.30
2019-01-10T22:42:54.205Z,10.37
2019-01-10T22:48:50.547Z,8.77
2019-01-10T22:51:40.378Z,12.67
2019-01-10T22:54:27.642Z,10.53
2019-01-10T22:57:09.323Z,11.53
2019-01-10T23:05:48.024Z,9.53
2019-01-10T23:08:34.459Z,7.87
2019-01-10T23:11:19.519Z,9.33
2019-01-10T23:14:12.280Z,10.77
2019-01-10T23:16:57.245Z,8.40
2019-01-10T23:22:43.030Z,12.43
2019-01-10T23:28:28.062Z,8.57
2019-01-10T23:31:13.372Z,10.37
2019-01-10T23:34:14.221Z,10.47
2019-01-10T23:36:32.656Z,9.27
2019-01-10T23:39:23.039Z,14.33
2019-01-10T23:42:12.467Z,10.77
2019-01-10T23:45:03.094Z,13.00
2019-01-10T23:47:59.563Z,10.93
2019-01-10T23:53:27.532Z,8.60
2019-01-10T23:56:09.558Z,9.43
2019-01-10T23:58:51.270Z,9.57
